Gates Mills, Ohio
Current Conditions -  °F | °C
As of 8:45 AM on Monday 24 Nov 2014 (Local Time) from KCGF Reporting Station
Broken Clouds Broken Clouds  
Wind Chill: 61°   Ceiling: 3500
Heat Index: 61°   Visibility: 10mi
Dew Point: 52°   Wind: 20mph
Humidity: 72%   Direction: 190°S
Pressure: 29.28"   Gusts: 32mph
Location:  41.52°N, 81.4°W
Report Text: KCGF 241345Z 19017G28KT 10SM BKN035 16/11 A2928
Loading
Personal Weather Stations






























Interactive Weather Map New forecast layout! Learn more

10-Day Weather Forecast

Advertisements
Track Severe Weather on mobile